Time;durP1;ratioP1;P1;durP2;ratioP2;P2;SDS_P1;SDS_P2;PMS_P1;PMS_P2;Temp;Humidity;BMP_temperature;BMP_pressure;BME280_temperature;BME280_humidity;BME280_pressure;Samples;Min_cycle;Max_cycle;Signal;HPM_P1;HPM_P2
2021/10/18 00:01:43;;;;;;;;;109.00;84.00;;;;;10.59;71.62;101510.84;4919207;29;8865;-67
2021/10/18 00:04:39;;;;;;;;;106.67;86.33;;;;;10.46;71.98;101506.16;4934852;28;8846;-67
2021/10/18 00:07:35;;;;;;;;;94.33;76.00;;;;;10.37;72.81;101506.06;4957289;28;9581;-67
2021/10/18 00:10:30;;;;;;;;;99.00;82.00;;;;;10.28;72.97;101505.97;4942782;29;8859;-68
2021/10/18 00:13:26;;;;;;;;;98.67;84.33;;;;;10.35;72.18;101500.03;4925140;29;8864;-67
2021/10/18 00:16:22;;;;;;;;;91.33;79.00;;;;;10.29;72.34;101504.84;4933714;29;9589;-67
2021/10/18 00:19:18;;;;;;;;;112.00;85.00;;;;;10.18;72.57;101503.38;4937793;29;8853;-67
2021/10/18 00:22:13;;;;;;;;;108.67;87.33;;;;;10.19;72.60;101502.25;4938196;29;8892;-68
2021/10/18 00:25:09;;;;;;;;;99.67;87.00;;;;;10.09;72.67;101499.72;4937491;29;8832;-67
2021/10/18 00:28:05;;;;;;;;;104.33;86.33;;;;;10.06;72.27;101499.53;4937571;29;8939;-67
2021/10/18 00:31:01;;;;;;;;;118.33;96.00;;;;;10.01;72.77;101503.19;4919498;29;8847;-67
2021/10/18 00:33:56;;;;;;;;;110.67;90.67;;;;;9.90;73.54;101499.00;4918661;29;8859;-68
2021/10/18 00:36:52;;;;;;;;;108.00;89.67;;;;;9.89;73.21;101498.19;4918604;29;8874;-68
2021/10/18 00:39:47;;;;;;;;;112.33;90.67;;;;;9.67;74.70;101504.41;4927446;29;8935;-66
2021/10/18 00:42:43;;;;;;;;;113.67;82.67;;;;;9.54;75.83;101499.69;4937390;29;8845;-68
2021/10/18 00:45:38;;;;;;;;;119.33;98.67;;;;;9.81;74.34;101500.81;4937301;29;8837;-68
2021/10/18 00:48:34;;;;;;;;;104.33;88.00;;;;;9.72;74.27;101503.47;4937670;29;8863;-67
2021/10/18 00:51:30;;;;;;;;;104.33;95.33;;;;;9.81;73.80;101506.34;4937892;29;8841;-67
2021/10/18 00:54:26;;;;;;;;;92.00;75.00;;;;;9.70;74.38;101503.78;4936868;29;8880;-67
2021/10/18 00:57:22;;;;;;;;;105.00;93.00;;;;;9.62;75.06;101504.50;4901004;29;8845;-67
2021/10/18 01:00:18;;;;;;;;;110.67;97.00;;;;;9.45;74.95;101501.50;4899117;29;9592;-67
2021/10/18 01:03:14;;;;;;;;;109.33;92.00;;;;;9.42;75.20;101502.09;4900844;29;8849;-67
2021/10/18 01:06:10;;;;;;;;;120.67;101.67;;;;;9.39;75.23;101500.78;4886553;29;8854;-67
2021/10/18 01:09:05;;;;;;;;;116.67;94.00;;;;;9.39;74.39;101499.94;4903446;29;8897;-67
2021/10/18 01:12:01;;;;;;;;;113.67;84.00;;;;;9.27;74.50;101497.66;4936641;29;8853;-67
2021/10/18 01:14:57;;;;;;;;;127.33;110.00;;;;;9.26;74.40;101500.72;4936378;29;8833;-67
2021/10/18 01:17:53;;;;;;;;;129.33;99.33;;;;;9.16;74.64;101502.53;4936617;29;8849;-67
2021/10/18 01:20:49;;;;;;;;;130.00;104.00;;;;;9.22;73.97;101500.53;4936523;29;8829;-68
2021/10/18 01:23:44;;;;;;;;;129.00;103.67;;;;;9.27;74.21;101502.34;4936516;29;8955;-66
2021/10/18 01:26:41;;;;;;;;;137.33;108.00;;;;;9.21;74.65;101500.84;4936652;29;9016;-67
2021/10/18 01:29:37;;;;;;;;;139.00;116.67;;;;;9.02;74.74;101501.66;4936396;29;8835;-67
2021/10/18 01:32:33;;;;;;;;;145.67;118.67;;;;;9.06;74.65;101507.44;4936552;29;8842;-67
2021/10/18 01:35:28;;;;;;;;;154.33;116.00;;;;;8.97;74.79;101512.81;4936423;29;8858;-67
2021/10/18 01:38:24;;;;;;;;;141.67;112.33;;;;;8.89;74.95;101513.47;4929464;29;8868;-67
2021/10/18 01:41:20;;;;;;;;;148.67;118.33;;;;;8.82;76.12;101515.81;4932733;29;8867;-67
2021/10/18 01:44:15;;;;;;;;;170.00;125.50;;;;;8.74;77.24;101525.56;4936234;29;8856;-67
2021/10/18 01:47:11;;;;;;;;;170.00;126.33;;;;;8.88;75.97;101522.84;4923869;29;8884;-67
2021/10/18 01:50:27;;;;;;;;;178.75;135.75;;;;;8.74;76.28;101522.81;4936216;29;8851;-67
2021/10/18 01:53:23;;;;;;;;;157.25;124.25;;;;;8.92;75.50;101534.94;4936291;29;8875;-67
2021/10/18 01:56:19;;;;;;;;;147.75;128.25;;;;;8.76;75.53;101530.78;4935802;29;8855;-66
2021/10/18 01:59:14;;;;;;;;;152.00;122.00;;;;;8.90;74.99;101537.19;4936070;29;9002;-66
2021/10/18 02:02:10;;;;;;;;;150.33;124.33;;;;;8.75;75.35;101537.41;4935897;29;8860;-68
2021/10/18 02:05:06;;;;;;;;;154.00;118.00;;;;;8.74;74.84;101539.34;4935627;29;8878;-67
2021/10/18 02:08:02;;;;;;;;;152.33;117.67;;;;;8.73;74.49;101543.22;4935486;29;8833;-67
2021/10/18 02:10:58;;;;;;;;;152.67;115.33;;;;;8.67;75.07;101541.66;4922607;29;8834;-67
2021/10/18 02:13:53;;;;;;;;;152.00;121.67;;;;;8.61;75.59;101540.91;4936031;29;9025;-67
2021/10/18 02:16:49;;;;;;;;;149.00;120.50;;;;;8.67;75.54;101540.84;4936012;29;9616;-65
2021/10/18 02:19:45;;;;;;;;;158.00;122.00;;;;;8.68;75.58;101548.00;4923015;29;8853;-67
2021/10/18 02:22:41;;;;;;;;;133.33;117.33;;;;;8.66;75.15;101547.44;4935188;29;8858;-67
2021/10/18 02:25:37;;;;;;;;;142.00;114.33;;;;;8.60;75.77;101546.72;4935185;29;9000;-66
2021/10/18 02:28:32;;;;;;;;;115.67;92.33;;;;;8.77;75.87;101548.97;4924397;29;8987;-67
2021/10/18 02:31:28;;;;;;;;;135.33;110.00;;;;;8.77;75.91;101551.72;4935507;29;8849;-67
2021/10/18 02:34:24;;;;;;;;;117.00;94.67;;;;;8.99;75.65;101557.47;4935021;29;9591;-66
2021/10/18 02:37:19;;;;;;;;;104.00;79.00;;;;;8.96;76.33;101566.31;4935347;28;9584;-66
2021/10/18 02:40:15;;;;;;;;;130.33;94.33;;;;;9.02;76.46;101562.38;4916472;29;8862;-66
2021/10/18 02:43:10;;;;;;;;;114.33;88.33;;;;;8.90;78.60;101567.53;4916456;29;8832;-66
2021/10/18 02:46:06;;;;;;;;;98.67;86.67;;;;;8.95;78.73;101556.41;4917492;29;8878;-67
2021/10/18 02:49:02;;;;;;;;;92.33;73.67;;;;;9.19;77.89;101554.38;4903489;29;8843;-68
2021/10/18 02:51:57;;;;;;;;;83.33;65.67;;;;;9.11;79.36;101571.59;4916327;29;8867;-67
2021/10/18 02:54:54;;;;;;;;;91.00;72.33;;;;;9.11;80.34;101563.34;4916040;29;8914;-67
2021/10/18 02:57:49;;;;;;;;;96.67;82.33;;;;;9.29;79.73;101558.09;4916236;29;8847;-67
2021/10/18 03:00:45;;;;;;;;;89.00;78.00;;;;;9.39;79.20;101555.16;4929530;29;8854;-67
2021/10/18 03:03:41;;;;;;;;;94.33;79.00;;;;;9.39;79.48;101564.28;4936804;28;8830;-67
2021/10/18 03:06:36;;;;;;;;;84.67;67.33;;;;;9.54;79.13;101556.84;4953884;28;8839;-67
2021/10/18 03:09:32;;;;;;;;;90.00;81.00;;;;;9.65;78.78;101563.81;4953981;28;9041;-66
2021/10/18 03:12:27;;;;;;;;;89.00;73.00;;;;;9.70;78.52;101560.97;4953872;28;8851;-67
2021/10/18 03:15:23;;;;;;;;;89.67;74.67;;;;;9.73;78.46;101558.41;4935232;29;8887;-67
2021/10/18 03:18:19;;;;;;;;;85.00;69.33;;;;;9.80;78.10;101554.44;4934600;29;8841;-67
2021/10/18 03:21:14;;;;;;;;;86.00;70.00;;;;;9.83;77.87;101559.38;4934916;29;8856;-66
2021/10/18 03:24:10;;;;;;;;;79.00;63.67;;;;;9.80;77.61;101557.19;4934363;29;11734;-67
2021/10/18 03:27:05;;;;;;;;;87.00;66.33;;;;;9.86;77.62;101561.50;4934643;29;11620;-67
2021/10/18 03:30:01;;;;;;;;;88.00;70.33;;;;;9.83;77.17;101551.09;4915308;29;11643;-67
2021/10/18 03:32:57;;;;;;;;;88.00;73.67;;;;;9.91;76.38;101555.91;4915797;29;8858;-67
2021/10/18 03:35:53;;;;;;;;;87.67;68.67;;;;;9.80;76.07;101557.19;4916605;29;8857;-66
2021/10/18 03:38:48;;;;;;;;;86.25;67.25;;;;;9.81;76.09;101559.66;4919328;29;11610;-67
2021/10/18 03:41:44;;;;;;;;;85.00;67.33;;;;;9.92;75.33;101560.31;4919650;29;12406;-67
2021/10/18 03:44:39;;;;;;;;;68.50;56.50;;;;;9.87;74.59;101560.38;4919172;29;11641;-67
2021/10/18 03:47:36;;;;;;;;;78.75;61.50;;;;;9.84;73.71;101566.53;4919215;29;11670;-67
2021/10/18 03:50:31;;;;;;;;;81.75;62.25;;;;;9.84;73.88;101558.25;4919130;29;11612;-67
2021/10/18 03:53:27;;;;;;;;;62.50;51.50;;;;;9.83;73.62;101560.19;4897052;29;11781;-67
2021/10/18 03:56:22;;;;;;;;;70.50;56.50;;;;;9.85;73.12;101569.00;4919371;29;11651;-67
2021/10/18 03:59:18;;;;;;;;;68.50;54.00;;;;;10.00;72.95;101571.47;4918802;29;11607;-67
2021/10/18 04:02:14;;;;;;;;;65.00;53.00;;;;;9.81;73.45;101565.19;4911031;29;11589;-67
2021/10/18 04:04:42;;;;;;;;;63.00;50.25;;;;;9.66;73.46;101571.81;4912952;29;11660;-66
2021/10/18 04:07:09;;;;;;;;;65.50;54.25;;;;;9.63;73.48;101561.38;4919242;29;11677;-66
2021/10/18 04:10:06;;;;;;;;;76.00;59.50;;;;;9.65;73.15;101566.59;4887677;29;11636;-67
2021/10/18 04:13:02;;;;;;;;;61.75;51.50;;;;;9.68;73.16;101568.75;4918678;29;11613;-66
2021/10/18 04:15:58;;;;;;;;;80.50;62.00;;;;;9.53;73.28;101569.03;4915860;29;11626;-67
2021/10/18 04:18:26;;;;;;;;;75.25;59.75;;;;;9.62;72.54;101570.78;4917986;29;11677;-67
2021/10/18 04:21:22;;;;;;;;;70.00;57.00;;;;;9.64;72.44;101573.25;4903800;29;12337;-66
2021/10/18 04:24:17;;;;;;;;;69.00;57.00;;;;;9.66;72.74;101577.34;4915576;29;11641;-67
2021/10/18 04:27:13;;;;;;;;;70.75;56.50;;;;;9.46;73.17;101580.44;4905188;29;12329;-67
2021/10/18 04:30:10;;;;;;;;;71.00;55.75;;;;;9.50;72.99;101578.72;4916613;29;11671;-67
2021/10/18 04:33:05;;;;;;;;;58.50;48.25;;;;;9.48;73.23;101587.31;4916142;29;11705;-67
2021/10/18 04:36:01;;;;;;;;;82.00;65.33;;;;;9.60;72.70;101595.13;4904871;29;11744;-67
2021/10/18 04:38:57;;;;;;;;;90.33;76.67;;;;;9.67;72.65;101601.09;4916563;29;11571;-67
2021/10/18 04:41:53;;;;;;;;;102.67;92.67;;;;;9.61;72.59;101598.72;4917043;29;8833;-66
2021/10/18 04:44:48;;;;;;;;;108.00;102.67;;;;;9.66;72.48;101599.44;4917386;29;8877;-67
2021/10/18 04:47:46;;;;;;;;;116.67;99.00;;;;;9.79;71.91;101608.88;4915758;29;8843;-67
2021/10/18 04:50:42;;;;;;;;;113.00;106.67;;;;;9.80;72.05;101598.66;4903071;29;8849;-67
2021/10/18 04:53:37;;;;;;;;;116.33;107.00;;;;;9.77;72.19;101604.78;4913949;29;8879;-67
2021/10/18 04:56:33;;;;;;;;;110.00;99.33;;;;;9.80;72.10;101609.69;4917088;29;8852;-67
2021/10/18 04:59:28;;;;;;;;;106.67;95.67;;;;;9.88;71.48;101611.75;4916688;29;8975;-67
2021/10/18 05:02:24;;;;;;;;;94.00;86.00;;;;;9.97;71.15;101619.06;4916728;29;8850;-68
2021/10/18 05:05:21;;;;;;;;;102.67;96.67;;;;;9.97;71.48;101613.53;4917914;29;8866;-68
2021/10/18 05:08:06;;;;;;;;;117.33;107.00;;;;;10.00;70.78;101620.38;4919001;29;8874;-68
2021/10/18 05:10:35;;;;;;;;;115.67;106.33;;;;;10.09;70.71;101623.28;4919213;29;8885;-67
2021/10/18 05:13:05;;;;;;;;;117.33;111.33;;;;;10.17;70.74;101625.31;4918807;29;8890;-68
2021/10/18 05:15:33;;;;;;;;;115.00;106.33;;;;;10.10;70.79;101628.50;4901725;29;8866;-69
2021/10/18 05:18:04;;;;;;;;;118.33;105.33;;;;;10.21;70.21;101631.91;4918477;29;8878;-68
2021/10/18 05:21:03;;;;;;;;;113.67;103.33;;;;;10.29;69.61;101639.50;4917442;29;8862;-68
2021/10/18 05:23:59;;;;;;;;;105.67;97.00;;;;;10.45;69.24;101637.25;4917583;29;8965;-69
2021/10/18 05:26:54;;;;;;;;;110.00;88.33;;;;;10.45;69.45;101640.84;4904747;29;8859;-68
2021/10/18 05:29:50;;;;;;;;;126.67;113.00;;;;;10.32;69.33;101647.19;4917392;29;9665;-68
2021/10/18 05:33:00;;;;;;;;;98.33;88.67;;;;;10.52;68.60;101643.22;4917013;29;8951;-68
2021/10/18 05:35:56;;;;;;;;;101.00;88.00;;;;;10.65;68.85;101647.09;4917051;29;8955;-67
2021/10/18 05:38:52;;;;;;;;;96.33;84.67;;;;;10.99;70.17;101652.19;4917465;29;8912;-67
2021/10/18 05:41:47;;;;;;;;;90.33;77.33;;;;;11.05;68.07;101650.94;4906226;29;8975;-67
2021/10/18 05:44:43;;;;;;;;;92.33;80.00;;;;;11.29;68.89;101659.00;4917056;29;12273;-67
2021/10/18 05:48:00;;;;;;;;;88.33;73.33;;;;;11.32;66.99;101663.91;4917401;29;8920;-66
2021/10/18 05:50:55;;;;;;;;;88.00;74.67;;;;;11.49;67.37;101666.00;4904420;29;8829;-67
2021/10/18 05:53:51;;;;;;;;;81.00;64.50;;;;;11.60;66.16;101657.13;4917029;29;11710;-68
2021/10/18 05:56:47;;;;;;;;;73.25;58.25;;;;;11.79;65.17;101662.47;4897410;29;12516;-68
2021/10/18 05:59:43;;;;;;;;;75.00;60.25;;;;;11.69;64.21;101668.28;4897616;29;11646;-69
2021/10/18 06:02:33;;;;;;;;;67.25;55.50;;;;;11.60;63.75;101675.72;4913809;29;11588;-70
2021/10/18 06:05:29;;;;;;;;;77.50;62.75;;;;;11.81;62.97;101676.88;4916555;29;11584;-67
2021/10/18 06:08:25;;;;;;;;;76.75;59.75;;;;;11.63;62.41;101670.34;4916324;29;11548;-69
2021/10/18 06:11:20;;;;;;;;;65.75;53.75;;;;;11.79;61.21;101675.50;4903828;29;11583;-69
2021/10/18 06:14:16;;;;;;;;;74.75;56.25;;;;;11.67;60.86;101679.69;4916618;29;11693;-68
2021/10/18 06:17:11;;;;;;;;;69.50;54.25;;;;;11.63;60.89;101683.38;4916737;29;11592;-69
2021/10/18 06:20:07;;;;;;;;;77.75;58.25;;;;;11.68;60.67;101681.31;4916350;29;11575;-68
2021/10/18 06:23:03;;;;;;;;;72.75;56.00;;;;;11.70;60.53;101681.81;4916815;29;11635;-66
2021/10/18 06:25:32;;;;;;;;;65.50;52.00;;;;;12.00;60.27;101673.09;4916854;29;11623;-66
2021/10/18 06:28:27;;;;;;;;;65.25;52.00;;;;;12.01;59.73;101683.03;4923351;29;11625;-67
2021/10/18 06:30:55;;;;;;;;;63.50;52.75;;;;;12.13;59.65;101680.50;4931799;28;11591;-67
2021/10/18 06:33:51;;;;;;;;;71.50;56.00;;;;;12.41;59.26;101673.63;4934726;29;11729;-66
2021/10/18 06:36:46;;;;;;;;;70.75;56.25;;;;;12.62;58.80;101679.44;4934759;29;12397;-66
2021/10/18 06:39:43;;;;;;;;;72.25;55.00;;;;;12.65;58.21;101675.19;4935214;29;11829;-67
2021/10/18 06:42:38;;;;;;;;;68.50;52.00;;;;;12.63;57.85;101685.81;4923406;29;11724;-66
2021/10/18 06:45:34;;;;;;;;;68.75;56.00;;;;;12.80;57.36;101681.16;4925813;29;11601;-66
2021/10/18 06:48:19;;;;;;;;;86.75;69.00;;;;;12.74;56.19;101687.97;4935193;29;11598;-66
2021/10/18 06:51:15;;;;;;;;;82.50;66.50;;;;;12.74;56.29;101690.75;4930605;29;11612;-66
2021/10/18 06:54:13;;;;;;;;;91.50;75.00;;;;;12.68;56.04;101694.81;4929717;29;11627;-68
2021/10/18 06:57:08;;;;;;;;;85.00;71.50;;;;;12.57;56.26;101701.75;4938078;29;11768;-66
2021/10/18 07:00:06;;;;;;;;;83.00;70.25;;;;;12.76;56.60;101694.03;4928135;29;11729;-66
2021/10/18 07:02:34;;;;;;;;;93.00;81.75;;;;;12.85;56.07;101705.16;4930294;29;11721;-67
2021/10/18 07:05:03;;;;;;;;;84.75;63.00;;;;;13.08;56.14;101703.91;4935753;29;11597;-66
2021/10/18 07:07:58;;;;;;;;;87.25;78.00;;;;;13.29;55.09;101709.72;4934491;29;11649;-69
2021/10/18 07:10:54;;;;;;;;;65.75;52.00;;;;;13.46;54.81;101703.34;4934427;29;11588;-69
2021/10/18 07:13:50;;;;;;;;;72.50;56.00;;;;;13.70;54.09;101704.81;4934384;29;12372;-68
2021/10/18 07:16:45;;;;;;;;;59.75;50.75;;;;;13.38;54.77;101708.91;4934481;29;12467;-68
2021/10/18 07:19:41;;;;;;;;;60.25;50.50;;;;;13.71;54.71;101701.72;4934714;29;11638;-69
2021/10/18 07:22:48;;;;;;;;;63.25;51.75;;;;;14.10;53.49;101697.09;4934569;29;11658;-69
2021/10/18 07:25:19;;;;;;;;;68.00;53.75;;;;;14.15;52.79;101702.47;4935174;29;11620;-68
2021/10/18 07:27:47;;;;;;;;;62.00;50.75;;;;;13.99;52.34;101696.63;4935345;29;11596;-69
2021/10/18 07:30:19;;;;;;;;;54.75;46.75;;;;;13.70;52.73;101700.06;4935630;29;12393;-69
2021/10/18 07:32:47;;;;;;;;;51.50;43.00;;;;;14.11;52.45;101693.19;4935579;29;11568;-70
2021/10/18 07:35:18;;;;;;;;;54.75;46.25;;;;;14.33;51.93;101697.69;4935329;29;11547;-70
2021/10/18 07:37:52;;;;;;;;;49.25;43.00;;;;;14.48;51.10;101688.81;4935406;29;11364;-69
2021/10/18 07:40:22;;;;;;;;;64.25;50.75;;;;;14.61;50.64;101690.56;4918452;29;11559;-71
2021/10/18 07:42:50;;;;;;;;;62.00;50.75;;;;;14.58;50.36;101685.69;4935666;29;11560;-68
2021/10/18 07:45:19;;;;;;;;;60.75;49.50;;;;;14.78;49.85;101686.06;4935531;29;11590;-70
2021/10/18 07:47:47;;;;;;;;;58.50;48.75;;;;;14.86;48.86;101679.66;4934606;29;11632;-71
2021/10/18 07:50:15;;;;;;;;;56.50;48.00;;;;;14.95;48.52;101678.47;4935366;29;11616;-68
2021/10/18 07:52:44;;;;;;;;;53.25;44.50;;;;;15.26;47.88;101680.06;4935756;29;11544;-68
2021/10/18 07:55:17;;;;;;;;;31.75;30.75;;;;;14.79;46.98;101677.38;4935188;29;10976;-68
2021/10/18 07:57:48;;;;;;;;;31.00;31.00;;;;;14.95;45.79;101672.06;4949921;29;10413;-69
2021/10/18 08:00:18;;;;;;;;;38.25;34.25;;;;;15.02;46.24;101677.91;4935314;29;11197;-69
2021/10/18 08:02:46;;;;;;;;;43.75;36.00;;;;;15.54;45.51;101678.34;4935280;29;10724;-70
2021/10/18 08:05:16;;;;;;;;;31.75;30.25;;;;;15.72;44.91;101690.22;4918364;29;10639;-70
2021/10/18 08:07:55;;;;;;;;;19.25;19.25;;;;;15.80;44.17;101689.34;4935518;29;10226;-70
2021/10/18 08:10:23;;;;;;;;;11.75;11.75;;;;;16.07;43.51;101685.13;4935296;29;9640;-70
2021/10/18 08:12:57;;;;;;;;;22.25;22.25;;;;;16.10;43.01;101678.88;4918585;29;9552;-70
2021/10/18 08:15:26;;;;;;;;;32.75;29.00;;;;;16.17;43.17;101671.88;4918258;29;9556;-69
2021/10/18 08:17:55;;;;;;;;;26.75;24.50;;;;;16.45;41.50;101672.06;4935175;29;9554;-69
2021/10/18 08:20:24;;;;;;;;;23.00;23.00;;;;;16.44;41.56;101681.59;4935405;29;9514;-71
2021/10/18 08:22:53;;;;;;;;;16.67;16.67;;;;;16.48;41.09;101676.94;4938971;29;9579;-70
2021/10/18 08:25:25;;;;;;;;;19.00;19.00;;;;;16.33;41.12;101682.06;4938816;29;10011;-70
2021/10/18 08:27:53;;;;;;;;;26.33;20.00;;;;;16.20;41.01;101680.41;4921817;29;9221;-70
2021/10/18 08:30:21;;;;;;;;;14.67;14.67;;;;;15.90;41.48;101688.09;4938713;29;9145;-70
2021/10/18 08:32:54;;;;;;;;;10.67;10.67;;;;;15.77;41.02;101683.59;4938592;29;9073;-70
2021/10/18 08:35:22;;;;;;;;;13.33;13.33;;;;;16.19;40.75;101686.31;4938470;29;9177;-69
2021/10/18 08:40:43;;;;;;;;;11.67;11.67;;;;;16.95;39.26;101680.97;4938599;29;9324;-71
2021/10/18 08:45:40;;;;;;;;;12.00;12.00;;;;;16.78;39.89;101672.81;4938571;29;8955;-70
2021/10/18 08:48:09;;;;;;;;;14.00;14.00;;;;;16.98;39.27;101668.25;4938354;29;8895;-69
2021/10/18 08:50:38;;;;;;;;;14.67;14.33;;;;;16.82;39.47;101670.94;4921817;29;8964;-70
2021/10/18 08:53:06;;;;;;;;;13.25;12.00;;;;;16.47;39.01;101673.34;4937914;29;9001;-70
2021/10/18 08:55:37;;;;;;;;;17.00;17.00;;;;;16.22;39.16;101666.91;4938280;29;8857;-71
2021/10/18 08:58:05;;;;;;;;;52.00;31.00;;;;;17.00;38.48;101670.69;4938350;29;9015;-69
2021/10/18 09:00:47;;;;;;;;;10.50;10.25;;;;;17.54;38.05;101667.56;4938255;29;9189;-69
2021/10/18 09:03:18;;;;;;;;;14.33;13.67;;;;;17.57;37.10;101666.88;4938359;29;8971;-69
2021/10/18 09:05:51;;;;;;;;;14.75;14.75;;;;;17.93;36.62;101666.72;4938034;29;8969;-70
2021/10/18 09:08:36;;;;;;;;;16.25;16.25;;;;;17.95;36.46;101667.19;4938081;29;8857;-70
2021/10/18 09:11:26;;;;;;;;;13.00;13.00;;;;;17.70;35.83;101669.25;4933940;29;8860;-71
2021/10/18 09:14:22;;;;;;;;;14.00;14.00;;;;;17.17;36.78;101651.69;4924321;29;8873;-70
2021/10/18 09:17:34;;;;;;;;;17.75;17.75;;;;;17.12;37.29;101651.94;4919537;29;8874;-71
2021/10/18 09:20:36;;;;;;;;;15.75;15.25;;;;;17.70;36.76;101651.63;4917759;29;8866;-69
2021/10/18 09:23:37;;;;;;;;;13.25;12.25;;;;;18.02;35.74;101647.81;4918316;29;8844;-70
2021/10/18 09:26:33;;;;;;;;;16.50;16.50;;;;;18.32;35.04;101641.75;4922227;29;8962;-70
2021/10/18 09:29:04;;;;;;;;;18.00;17.00;;;;;18.53;35.19;101650.72;4937560;29;8841;-68
2021/10/18 09:32:03;;;;;;;;;13.75;13.75;;;;;18.83;34.23;101645.47;4933159;29;8853;-68
2021/10/18 09:34:34;;;;;;;;;16.50;16.50;;;;;18.82;34.66;101637.44;4936892;29;8884;-69
2021/10/18 09:37:38;;;;;;;;;13.00;13.00;;;;;19.25;33.64;101644.03;4936288;29;8964;-69
2021/10/18 09:40:33;;;;;;;;;14.25;14.25;;;;;19.31;33.54;101643.34;4935988;29;8865;-70
2021/10/18 09:43:38;;;;;;;;;16.00;16.00;;;;;19.24;33.45;101646.00;4902265;29;8855;-69
2021/10/18 09:46:38;;;;;;;;;22.00;19.50;;;;;19.55;33.23;101647.03;4934158;29;8845;-70
2021/10/18 10:53:43;;;;;;;;;16.25;16.25;;;;;19.92;31.40;101594.09;4934708;29;8845;-69
2021/10/18 10:56:49;;;;;;;;;20.50;20.50;;;;;20.13;31.27;101596.47;4919921;29;8869;-70
2021/10/18 10:59:52;;;;;;;;;16.25;16.25;;;;;19.78;31.69;101597.44;4934819;29;8912;-70
2021/10/18 11:02:48;;;;;;;;;17.25;17.25;;;;;19.64;31.72;101597.19;4912634;29;8921;-68
2021/10/18 11:05:57;;;;;;;;;17.00;16.00;;;;;20.18;31.17;101591.38;4933935;29;9583;-69
2021/10/18 11:08:31;;;;;;;;;17.75;16.75;;;;;20.08;30.81;101577.94;4935792;29;8871;-69
2021/10/18 11:11:20;;;;;;;;;17.00;17.00;;;;;19.62;30.90;101585.50;4936012;29;8872;-70
2021/10/18 11:14:24;;;;;;;;;15.00;15.00;;;;;20.02;30.45;101585.06;4928900;29;8853;-69
2021/10/18 11:17:19;;;;;;;;;33.75;32.00;;;;;20.02;30.24;101585.06;4935982;29;8849;-69
2021/10/18 11:19:55;;;;;;;;;12.00;12.00;;;;;20.26;30.20;101575.44;4934962;29;8857;-68
2021/10/18 11:22:28;;;;;;;;;23.75;23.75;;;;;20.41;30.33;101577.31;4934598;29;8883;-68
2021/10/18 11:25:16;;;;;;;;;17.75;16.25;;;;;20.10;29.82;101580.38;4931711;29;8879;-69
2021/10/18 11:28:01;;;;;;;;;17.75;17.75;;;;;19.60;30.57;101574.66;4935265;29;8912;-69
2021/10/18 11:30:31;;;;;;;;;14.75;14.75;;;;;19.42;31.41;101573.47;4943865;29;8904;-68
2021/10/18 11:33:14;;;;;;;;;23.25;18.75;;;;;19.47;30.56;101575.94;4934590;29;8881;-69
2021/10/18 11:35:50;;;;;;;;;19.50;18.75;;;;;19.85;30.54;101574.31;4948717;29;9629;-69
2021/10/18 11:38:18;;;;;;;;;14.75;14.75;;;;;19.94;30.31;101567.28;4935216;29;8884;-68
2021/10/18 11:40:59;;;;;;;;;14.00;13.00;;;;;19.72;30.16;101573.69;4928778;29;8908;-68
2021/10/18 11:43:30;;;;;;;;;15.00;14.50;;;;;19.24;30.63;101570.28;4935594;29;8857;-68
2021/10/18 11:46:11;;;;;;;;;14.00;14.00;;;;;19.30;30.73;101579.22;4926584;29;8869;-68
2021/10/18 11:49:07;;;;;;;;;16.50;16.50;;;;;19.66;30.12;101561.94;4918856;29;8863;-68
2021/10/18 11:52:07;;;;;;;;;16.25;15.75;;;;;19.55;29.91;101572.13;4934194;29;8853;-69
2021/10/18 11:55:07;;;;;;;;;13.00;13.00;;;;;20.06;29.60;101571.88;4935329;29;8872;-70
2021/10/18 11:57:41;;;;;;;;;13.75;13.75;;;;;20.19;30.12;101570.53;4938982;29;8891;-69
2021/10/18 12:00:42;;;;;;;;;13.50;13.50;;;;;20.30;30.14;101573.50;4938126;29;8869;-69
2021/10/18 12:03:12;;;;;;;;;14.25;14.25;;;;;20.06;29.79;101560.66;4938643;29;8861;-69
2021/10/18 12:05:44;;;;;;;;;12.50;12.50;;;;;20.19;29.40;101562.09;4938902;29;8845;-69
2021/10/18 12:08:40;;;;;;;;;13.50;13.50;;;;;19.67;30.18;101562.75;4932743;29;8868;-68
2021/10/18 12:11:36;;;;;;;;;15.50;15.50;;;;;19.54;30.39;101564.06;4937595;29;8946;-68
2021/10/18 12:14:32;;;;;;;;;15.50;15.50;;;;;19.69;29.93;101566.81;4936247;29;8871;-68
2021/10/18 12:17:29;;;;;;;;;13.75;13.75;;;;;19.82;29.91;101556.22;4934550;29;8852;-69
2021/10/18 12:20:18;;;;;;;;;13.75;13.75;;;;;20.15;29.81;101566.00;4937778;29;8889;-69
2021/10/18 12:23:20;;;;;;;;;17.00;16.00;;;;;20.18;29.52;101557.66;4932489;29;8932;-68
2021/10/18 12:26:22;;;;;;;;;17.25;17.25;;;;;19.91;30.46;101567.19;4918629;29;8859;-70
2021/10/18 12:29:20;;;;;;;;;17.50;17.50;;;;;19.78;30.77;101566.56;4918568;29;8875;-69
2021/10/18 12:32:07;;;;;;;;;17.50;17.00;;;;;19.83;30.30;101562.66;4937063;29;8912;-69
2021/10/18 12:35:03;;;;;;;;;13.25;13.25;;;;;19.80;30.60;101569.81;4937425;29;8837;-69
2021/10/18 12:38:15;;;;;;;;;17.75;17.75;;;;;19.32;31.22;101566.47;4937268;29;9004;-69
2021/10/18 12:41:17;;;;;;;;;16.50;16.50;;;;;19.21;30.18;101568.22;4938426;29;9591;-68
2021/10/18 12:44:03;;;;;;;;;15.25;14.75;;;;;18.94;30.78;101564.44;4938264;29;9645;-68
2021/10/18 12:46:31;;;;;;;;;14.25;14.25;;;;;18.96;31.05;101564.09;4920960;29;8891;-68
2021/10/18 12:49:34;;;;;;;;;16.50;16.50;;;;;18.65;31.11;101567.75;4938196;29;9629;-68
2021/10/18 12:52:03;;;;;;;;;17.50;17.50;;;;;18.62;31.34;101561.69;4935083;29;8864;-69
2021/10/18 12:54:44;;;;;;;;;17.25;16.75;;;;;18.82;31.31;101562.56;4928745;29;8863;-69
2021/10/18 12:57:48;;;;;;;;;17.25;16.25;;;;;18.98;31.36;101559.72;4920704;29;8873;-67
2021/10/18 13:00:44;;;;;;;;;13.25;12.25;;;;;18.52;31.66;101553.03;4921008;29;8825;-69
2021/10/18 13:03:39;;;;;;;;;15.50;15.50;;;;;18.53;32.01;101555.47;4916453;29;9620;-69
2021/10/18 13:06:35;;;;;;;;;16.75;16.50;;;;;18.69;31.91;101558.25;4936204;29;8856;-69
2021/10/18 13:09:30;;;;;;;;;15.75;15.75;;;;;18.85;31.19;101558.22;4929035;28;8835;-69
2021/10/18 13:12:27;;;;;;;;;16.00;15.25;;;;;18.41;31.83;101552.78;4936611;29;8849;-68
2021/10/18 13:15:23;;;;;;;;;14.50;14.50;;;;;18.00;32.56;101566.16;4937137;29;8845;-69
2021/10/18 13:18:13;;;;;;;;;13.25;13.25;;;;;17.93;33.10;101565.97;4935717;29;9624;-68
2021/10/18 13:20:43;;;;;;;;;19.25;19.25;;;;;18.02;32.90;101555.44;4937553;29;8857;-68
2021/10/18 13:23:38;;;;;;;;;16.00;16.00;;;;;18.24;32.49;101551.16;4941372;29;8872;-68
2021/10/18 13:26:34;;;;;;;;;18.75;17.25;;;;;18.05;32.19;101557.50;4942961;28;8835;-68
2021/10/18 13:29:30;;;;;;;;;22.67;22.67;;;;;17.66;32.76;101552.81;4941324;28;9650;-68
2021/10/18 13:32:25;;;;;;;;;17.00;17.00;;;;;17.21;33.45;101551.97;4947582;29;9037;-67
2021/10/18 13:35:23;;;;;;;;;19.33;19.33;;;;;16.96;34.09;101556.03;4935188;29;9960;-68
2021/10/18 13:38:19;;;;;;;;;16.00;15.00;;;;;16.43;34.73;101551.53;4916413;29;9131;-68
2021/10/18 13:40:47;;;;;;;;;14.00;13.33;;;;;16.17;34.89;101552.69;4927468;29;9766;-68
2021/10/18 13:43:42;;;;;;;;;17.33;17.33;;;;;15.83;35.74;101567.88;4936036;29;9254;-68
2021/10/18 13:46:39;;;;;;;;;16.33;16.33;;;;;16.13;35.71;101560.97;4923247;29;9403;-68
2021/10/18 13:49:11;;;;;;;;;27.00;22.50;;;;;15.88;36.16;101564.06;4937305;29;9336;-69
2021/10/18 13:52:09;;;;;;;;;20.50;19.75;;;;;15.93;36.14;101566.63;4933063;29;9641;-69
2021/10/18 13:55:05;;;;;;;;;15.50;15.50;;;;;15.49;36.59;101567.06;4935962;29;9743;-67
2021/10/18 13:58:01;;;;;;;;;17.25;17.00;;;;;15.58;36.71;101559.44;4935766;29;9737;-68
2021/10/18 14:00:28;;;;;;;;;18.75;18.75;;;;;15.76;36.55;101562.88;4936823;29;9552;-68
2021/10/18 14:02:57;;;;;;;;;24.00;22.75;;;;;15.82;36.18;101567.06;4936738;29;9655;-68
2021/10/18 14:05:25;;;;;;;;;18.50;18.25;;;;;15.93;36.17;101567.44;4918908;29;9746;-67